Time;durP1;ratioP1;P1;durP2;ratioP2;P2;SDS_P1;SDS_P2;PMS_P1;PMS_P2;Temp;Humidity;BMP_temperature;BMP_pressure;BME280_temperature;BME280_humidity;BME280_pressure;Samples;Min_cycle;Max_cycle;Signal;HPM_P1;HPM_P2
2024/02/14 00:02:31;;;;;;;6.65;4.53;;;;;;;;;;6281908;28;20118;-76
2024/02/14 00:05:33;;;;;;;9.50;6.22;;;;;;;;;;6243580;28;20056;-76
2024/02/14 00:08:35;;;;;;;8.38;6.72;;;;;;;;;;6260226;28;20425;-76
2024/02/14 00:11:37;;;;;;;7.75;5.25;;;;;;;;;;6247032;28;20055;-76
2024/02/14 00:14:39;;;;;;;8.80;5.15;;;;;;;;;;6262694;28;20155;-76
2024/02/14 00:17:43;;;;;;;7.93;5.32;;;;;;;;;;6279475;28;20048;-76
2024/02/14 00:20:45;;;;;;;9.27;5.82;;;;;;;;;;6282015;28;20052;-76
2024/02/14 00:23:47;;;;;;;9.68;5.95;;;;;;;;;;6258167;28;20394;-75
2024/02/14 00:26:50;;;;;;;11.48;6.05;;;;;;;;;;6246375;28;20794;-77
2024/02/14 00:29:53;;;;;;;6.88;3.88;;;;;;;;;;6244876;28;20036;-75
2024/02/14 00:32:57;;;;;;;10.63;6.32;;;;;;;;;;6262986;28;20056;-75
2024/02/14 00:35:59;;;;;;;6.00;4.43;;;;;;;;;;6243720;28;20059;-76
2024/02/14 00:39:02;;;;;;;10.02;5.15;;;;;;;;;;6263273;28;20134;-76
2024/02/14 00:42:05;;;;;;;10.48;5.95;;;;;;;;;;6254593;28;20132;-75
2024/02/14 00:45:11;;;;;;;6.30;4.05;;;;;;;;;;6221642;28;20069;-76
2024/02/14 00:48:14;;;;;;;7.63;5.05;;;;;;;;;;6277301;28;20048;-74
2024/02/14 00:51:19;;;;;;;9.18;4.68;;;;;;;;;;6223457;28;20127;-75
2024/02/14 00:54:21;;;;;;;7.75;5.75;;;;;;;;;;6247869;28;20585;-75
2024/02/14 00:57:25;;;;;;;9.75;5.80;;;;;;;;;;6261857;28;20041;-75
2024/02/14 01:00:28;;;;;;;8.30;5.18;;;;;;;;;;6257946;28;20121;-76
2024/02/14 01:03:30;;;;;;;6.93;5.28;;;;;;;;;;6275295;28;20051;-76
2024/02/14 01:06:32;;;;;;;10.25;5.88;;;;;;;;;;6239770;28;20044;-76
2024/02/14 01:09:36;;;;;;;8.43;4.97;;;;;;;;;;6260144;28;20055;-76
2024/02/14 01:12:39;;;;;;;8.63;5.72;;;;;;;;;;6260683;28;20173;-76
2024/02/14 01:15:43;;;;;;;9.35;7.07;;;;;;;;;;6265535;28;20873;-76
2024/02/14 01:18:45;;;;;;;10.55;6.40;;;;;;;;;;6216089;28;20072;-76
2024/02/14 01:21:48;;;;;;;8.48;6.18;;;;;;;;;;6278326;28;20040;-76
2024/02/14 01:24:50;;;;;;;11.52;7.20;;;;;;;;;;6227722;28;20056;-77
2024/02/14 01:27:53;;;;;;;12.73;8.02;;;;;;;;;;6248167;28;20059;-76
2024/02/14 01:30:56;;;;;;;8.38;5.88;;;;;;;;;;6285757;28;20044;-76
2024/02/14 01:34:01;;;;;;;10.23;5.65;;;;;;;;;;6263558;28;20805;-75
2024/02/14 01:37:04;;;;;;;10.18;6.25;;;;;;;;;;6230790;28;20049;-76
2024/02/14 01:40:07;;;;;;;9.68;6.53;;;;;;;;;;6259586;28;20609;-77
2024/02/14 01:43:23;;;;;;;9.20;6.95;;;;;;;;;;6245566;28;20060;-77
2024/02/14 01:46:26;;;;;;;8.82;6.28;;;;;;;;;;6239983;28;20549;-77
2024/02/14 01:49:31;;;;;;;8.98;5.90;;;;;;;;;;6263114;28;20102;-77
2024/02/14 01:52:35;;;;;;;9.45;6.80;;;;;;;;;;6266054;28;20178;-76
2024/02/14 01:55:37;;;;;;;8.52;5.28;;;;;;;;;;6263458;28;20378;-76
2024/02/14 01:58:40;;;;;;;11.40;6.78;;;;;;;;;;6247374;28;20056;-76
2024/02/14 02:01:42;;;;;;;10.25;6.13;;;;;;;;;;6274290;28;20056;-77
2024/02/14 02:04:44;;;;;;;9.80;5.63;;;;;;;;;;6259572;28;20037;-77
2024/02/14 02:07:48;;;;;;;8.60;5.40;;;;;;;;;;6262069;28;20044;-77
2024/02/14 02:10:52;;;;;;;9.52;6.70;;;;;;;;;;6248565;28;20040;-77
2024/02/14 02:14:14;;;;;;;10.48;6.50;;;;;;;;;;6264001;28;20121;-77
2024/02/14 02:17:39;;;;;;;9.75;6.68;;;;;;;;;;6261578;28;20180;-77
2024/02/14 02:21:06;;;;;;;8.45;5.70;;;;;;;;;;6251651;28;20052;-76
2024/02/14 02:24:09;;;;;;;10.70;6.80;;;;;;;;;;6242289;28;20051;-76
2024/02/14 02:27:13;;;;;;;9.80;5.78;;;;;;;;;;6284150;28;20492;-76
2024/02/14 02:30:36;;;;;;;11.25;7.07;;;;;;;;;;6247482;28;20037;-76
2024/02/14 02:33:40;;;;;;;10.63;7.22;;;;;;;;;;6245483;28;20076;-77
2024/02/14 02:36:43;;;;;;;9.07;6.65;;;;;;;;;;6245108;28;20381;-76
2024/02/14 02:40:04;;;;;;;8.63;4.82;;;;;;;;;;6269547;28;20048;-76
2024/02/14 02:43:35;;;;;;;11.75;7.75;;;;;;;;;;6276887;28;20060;-76
2024/02/14 02:47:00;;;;;;;10.30;6.47;;;;;;;;;;6255771;28;20629;-76
2024/02/14 02:50:22;;;;;;;10.57;6.22;;;;;;;;;;6263642;28;20164;-76
2024/02/14 02:53:44;;;;;;;11.50;8.57;;;;;;;;;;6280987;28;20532;-75
2024/02/14 02:57:10;;;;;;;8.18;5.72;;;;;;;;;;6267170;28;20603;-76
2024/02/14 03:00:13;;;;;;;10.73;6.75;;;;;;;;;;6249821;28;20113;-76
2024/02/14 03:03:25;;;;;;;9.15;5.80;;;;;;;;;;6257627;28;20032;-76
2024/02/14 03:06:39;;;;;;;8.32;5.13;;;;;;;;;;6265501;28;20056;-76
2024/02/14 03:09:55;;;;;;;10.27;7.20;;;;;;;;;;6258065;28;20038;-77
2024/02/14 03:13:19;;;;;;;10.43;7.30;;;;;;;;;;6264644;28;20699;-77
2024/02/14 03:16:42;;;;;;;12.80;8.63;;;;;;;;;;6264767;28;20040;-77
2024/02/14 03:19:45;;;;;;;10.23;6.00;;;;;;;;;;6266114;28;20075;-77
2024/02/14 03:22:47;;;;;;;12.85;8.23;;;;;;;;;;6231454;28;20581;-77
2024/02/14 03:25:51;;;;;;;9.52;6.55;;;;;;;;;;6264772;28;20491;-76
2024/02/14 03:28:54;;;;;;;11.30;7.13;;;;;;;;;;6258946;28;20292;-76
2024/02/14 03:31:58;;;;;;;9.48;6.45;;;;;;;;;;6266407;28;20522;-76
2024/02/14 03:35:00;;;;;;;10.35;6.10;;;;;;;;;;6246861;28;20064;-76
2024/02/14 03:38:03;;;;;;;9.77;6.20;;;;;;;;;;6246215;28;20060;-76
2024/02/14 03:41:07;;;;;;;14.00;7.40;;;;;;;;;;6260669;28;20056;-76
2024/02/14 03:44:11;;;;;;;10.40;6.85;;;;;;;;;;6237350;28;20121;-76
2024/02/14 03:47:14;;;;;;;11.85;7.82;;;;;;;;;;6227893;28;20160;-76
2024/02/14 03:50:17;;;;;;;16.13;8.43;;;;;;;;;;6225372;28;20194;-76
2024/02/14 03:53:19;;;;;;;13.02;7.95;;;;;;;;;;6258291;28;20441;-76
2024/02/14 03:56:21;;;;;;;14.32;8.50;;;;;;;;;;6244418;28;20067;-77
2024/02/14 03:59:24;;;;;;;12.20;7.05;;;;;;;;;;6245147;28;20745;-77
2024/02/14 04:02:28;;;;;;;16.58;8.23;;;;;;;;;;6264169;28;20052;-77
2024/02/14 04:05:31;;;;;;;14.02;7.55;;;;;;;;;;6236625;28;20057;-77
2024/02/14 04:08:33;;;;;;;17.55;8.45;;;;;;;;;;6242870;28;20060;-77
2024/02/14 04:11:37;;;;;;;12.10;7.53;;;;;;;;;;6260241;28;20074;-77
2024/02/14 04:14:39;;;;;;;8.93;5.80;;;;;;;;;;6238711;28;20142;-76
2024/02/14 04:17:42;;;;;;;11.73;6.75;;;;;;;;;;6263834;28;20859;-76
2024/02/14 04:20:44;;;;;;;9.00;5.93;;;;;;;;;;6257943;28;20053;-75
2024/02/14 04:23:46;;;;;;;11.23;7.60;;;;;;;;;;6246070;28;20165;-76
2024/02/14 04:26:49;;;;;;;13.02;8.50;;;;;;;;;;6260356;28;20091;-76
2024/02/14 04:29:51;;;;;;;16.13;9.52;;;;;;;;;;6248007;28;20048;-76
2024/02/14 04:32:53;;;;;;;16.65;10.60;;;;;;;;;;6229587;28;20051;-76
2024/02/14 04:35:56;;;;;;;11.35;6.68;;;;;;;;;;6239277;28;20052;-76
2024/02/14 04:38:58;;;;;;;15.88;8.85;;;;;;;;;;6261075;28;20195;-76
2024/02/14 04:42:01;;;;;;;11.20;8.18;;;;;;;;;;6285991;28;20044;-77
2024/02/14 04:45:04;;;;;;;13.80;9.48;;;;;;;;;;6279413;28;20045;-76
2024/02/14 04:48:10;;;;;;;9.68;7.13;;;;;;;;;;6244837;28;20044;-76
2024/02/14 04:51:12;;;;;;;9.52;7.15;;;;;;;;;;6259210;28;20094;-77
2024/02/14 04:54:17;;;;;;;11.38;7.78;;;;;;;;;;6259472;28;20056;-75
2024/02/14 04:57:24;;;;;;;12.07;7.75;;;;;;;;;;6254601;28;20566;-76
2024/02/14 05:00:27;;;;;;;14.60;9.60;;;;;;;;;;6277411;28;20048;-76
2024/02/14 05:03:31;;;;;;;14.07;8.65;;;;;;;;;;6244373;28;20433;-77
2024/02/14 05:06:34;;;;;;;11.75;7.53;;;;;;;;;;6278300;28;20072;-77
2024/02/14 05:09:36;;;;;;;20.70;10.40;;;;;;;;;;6230867;28;20041;-78
2024/02/14 05:12:40;;;;;;;18.20;11.27;;;;;;;;;;6278788;28;20151;-76
2024/02/14 05:15:42;;;;;;;16.13;9.48;;;;;;;;;;6228782;28;20127;-76
2024/02/14 05:18:47;;;;;;;18.17;10.60;;;;;;;;;;6247252;28;20549;-75
2024/02/14 05:21:50;;;;;;;15.88;10.02;;;;;;;;;;6224285;28;20047;-76
2024/02/14 05:24:53;;;;;;;16.55;10.70;;;;;;;;;;6273731;28;20044;-77
2024/02/14 05:27:55;;;;;;;15.90;10.20;;;;;;;;;;6259210;28;20056;-77
2024/02/14 05:30:59;;;;;;;15.40;9.45;;;;;;;;;;6244380;28;20045;-76
2024/02/14 05:34:10;;;;;;;19.20;10.98;;;;;;;;;;6235066;28;20051;-76
2024/02/14 05:37:13;;;;;;;12.80;8.43;;;;;;;;;;6255028;28;20048;-77
2024/02/14 05:40:16;;;;;;;12.23;8.75;;;;;;;;;;6250823;28;20053;-76
2024/02/14 05:43:18;;;;;;;15.88;9.40;;;;;;;;;;6280362;28;20843;-78
2024/02/14 05:46:22;;;;;;;11.95;9.27;;;;;;;;;;6279121;28;20048;-76
2024/02/14 05:49:24;;;;;;;16.67;9.90;;;;;;;;;;6266809;28;20044;-78
2024/02/14 05:52:28;;;;;;;17.15;11.85;;;;;;;;;;6281715;28;20060;-77
2024/02/14 05:55:30;;;;;;;19.05;9.68;;;;;;;;;;6278575;28;20060;-76
2024/02/14 05:58:33;;;;;;;13.63;8.82;;;;;;;;;;6260570;28;20048;-76
2024/02/14 06:01:35;;;;;;;18.55;9.38;;;;;;;;;;6240989;28;20067;-76
2024/02/14 06:04:37;;;;;;;14.82;9.15;;;;;;;;;;6262860;28;20053;-76
2024/02/14 06:07:40;;;;;;;15.43;10.95;;;;;;;;;;6246193;28;20041;-77
2024/02/14 06:10:42;;;;;;;15.63;10.60;;;;;;;;;;6246501;28;20083;-75
2024/02/14 06:13:45;;;;;;;17.63;10.02;;;;;;;;;;6244077;28;20059;-76
2024/02/14 06:16:47;;;;;;;12.77;9.05;;;;;;;;;;6262251;28;20056;-77
2024/02/14 06:19:50;;;;;;;16.17;10.45;;;;;;;;;;6259149;28;20254;-77
2024/02/14 06:22:52;;;;;;;14.70;10.65;;;;;;;;;;6225545;28;20056;-77
2024/02/14 06:26:08;;;;;;;15.18;10.25;;;;;;;;;;6264559;28;20041;-77
2024/02/14 06:29:12;;;;;;;15.75;9.63;;;;;;;;;;6281959;28;20771;-77
2024/02/14 06:32:14;;;;;;;15.45;10.13;;;;;;;;;;6260605;28;20056;-76
2024/02/14 06:35:18;;;;;;;17.83;11.30;;;;;;;;;;6244424;28;20049;-76
2024/02/14 06:38:23;;;;;;;17.67;12.18;;;;;;;;;;6214565;28;20063;-76
2024/02/14 06:41:25;;;;;;;15.05;9.88;;;;;;;;;;6259084;28;20045;-76
2024/02/14 06:44:27;;;;;;;18.70;11.02;;;;;;;;;;6262713;28;20055;-77
2024/02/14 06:47:31;;;;;;;11.90;8.68;;;;;;;;;;6258670;28;20129;-75
2024/02/14 06:50:35;;;;;;;16.13;11.43;;;;;;;;;;6245771;28;20053;-75
2024/02/14 06:53:38;;;;;;;18.75;11.75;;;;;;;;;;6278228;28;20167;-76
2024/02/14 06:56:40;;;;;;;13.90;9.45;;;;;;;;;;6277419;28;20052;-75
2024/02/14 06:59:42;;;;;;;17.83;11.60;;;;;;;;;;6247505;28;20052;-76
2024/02/14 07:02:47;;;;;;;17.25;11.77;;;;;;;;;;6278654;28;20522;-75
2024/02/14 07:05:52;;;;;;;20.23;13.60;;;;;;;;;;6280499;28;20044;-76
2024/02/14 07:08:54;;;;;;;26.77;15.73;;;;;;;;;;6251338;28;20076;-76
2024/02/14 07:11:58;;;;;;;17.27;10.30;;;;;;;;;;6281650;28;20037;-76
2024/02/14 07:15:01;;;;;;;20.25;11.57;;;;;;;;;;6226141;28;20059;-76
2024/02/14 07:18:03;;;;;;;14.00;10.85;;;;;;;;;;6238272;28;20041;-76
2024/02/14 07:21:06;;;;;;;17.63;11.70;;;;;;;;;;6237342;28;20045;-77
2024/02/14 07:24:08;;;;;;;14.23;9.10;;;;;;;;;;6264766;28;20753;-76
2024/02/14 07:27:12;;;;;;;15.63;9.60;;;;;;;;;;6263127;28;20334;-76
2024/02/14 07:30:16;;;;;;;15.95;9.45;;;;;;;;;;6229508;28;20076;-75
2024/02/14 07:33:18;;;;;;;16.83;10.52;;;;;;;;;;6255788;28;20434;-76
2024/02/14 07:36:21;;;;;;;22.88;13.68;;;;;;;;;;6263431;28;20049;-75
2024/02/14 07:39:24;;;;;;;23.15;14.35;;;;;;;;;;6281434;28;20082;-76
2024/02/14 07:42:31;;;;;;;14.00;8.98;;;;;;;;;;6247451;28;20178;-76
2024/02/14 07:45:33;;;;;;;14.25;11.40;;;;;;;;;;6251689;28;20063;-76
2024/02/14 07:48:35;;;;;;;12.98;9.15;;;;;;;;;;6266279;28;20045;-75
2024/02/14 07:51:38;;;;;;;16.52;13.20;;;;;;;;;;6234300;28;20084;-76
2024/02/14 07:54:42;;;;;;;15.05;10.65;;;;;;;;;;6309265;28;20056;-76
2024/02/14 07:57:44;;;;;;;14.07;9.45;;;;;;;;;;6261874;28;20433;-75
2024/02/14 08:00:46;;;;;;;11.95;8.73;;;;;;;;;;6275539;28;20241;-75
2024/02/14 08:03:49;;;;;;;16.55;10.38;;;;;;;;;;6253663;28;20086;-77
2024/02/14 08:06:51;;;;;;;13.15;10.70;;;;;;;;;;6264067;28;20528;-74
2024/02/14 08:09:55;;;;;;;13.40;9.07;;;;;;;;;;6279600;28;20059;-76
2024/02/14 08:12:58;;;;;;;13.23;8.80;;;;;;;;;;6279031;28;20049;-75
2024/02/14 08:16:02;;;;;;;12.07;7.95;;;;;;;;;;6240639;28;20148;-77
2024/02/14 08:19:04;;;;;;;16.83;11.48;;;;;;;;;;6255122;28;20093;-77
2024/02/14 08:22:07;;;;;;;12.50;8.55;;;;;;;;;;6247282;28;20172;-76
2024/02/14 08:25:09;;;;;;;13.07;9.38;;;;;;;;;;6259508;28;20074;-77
2024/02/14 08:28:15;;;;;;;11.65;6.47;;;;;;;;;;6266104;28;20635;-77
2024/02/14 08:31:17;;;;;;;12.23;7.97;;;;;;;;;;6267401;28;20056;-78
2024/02/14 08:34:20;;;;;;;9.75;7.18;;;;;;;;;;6263939;28;20056;-77
2024/02/14 08:37:24;;;;;;;11.73;6.65;;;;;;;;;;6245883;28;20052;-76
2024/02/14 08:40:27;;;;;;;12.80;9.80;;;;;;;;;;6263880;28;20160;-75
2024/02/14 08:43:31;;;;;;;14.00;8.77;;;;;;;;;;6279993;28;20056;-76
2024/02/14 08:46:34;;;;;;;12.20;9.82;;;;;;;;;;6264817;28;20109;-76
2024/02/14 08:49:36;;;;;;;13.95;9.05;;;;;;;;;;6242063;28;20067;-75
2024/02/14 08:52:40;;;;;;;21.45;14.57;;;;;;;;;;6261107;28;20052;-76
2024/02/14 08:55:42;;;;;;;17.60;9.75;;;;;;;;;;6249289;28;20063;-76
2024/02/14 08:58:45;;;;;;;13.15;7.95;;;;;;;;;;6244799;28;20194;-76
2024/02/14 09:01:48;;;;;;;16.17;10.15;;;;;;;;;;6252964;28;20157;-76
2024/02/14 09:04:51;;;;;;;14.00;11.00;;;;;;;;;;6275243;28;20052;-75
2024/02/14 09:07:53;;;;;;;16.90;8.93;;;;;;;;;;6225890;28;20131;-76
2024/02/14 09:10:56;;;;;;;6.68;4.85;;;;;;;;;;6248616;28;20049;-76
2024/02/14 09:14:04;;;;;;;10.02;5.90;;;;;;;;;;6271038;28;20455;-76
2024/02/14 09:17:06;;;;;;;11.00;7.63;;;;;;;;;;6257601;28;20167;-76
2024/02/14 09:20:10;;;;;;;13.88;9.13;;;;;;;;;;6281220;28;20052;-76
2024/02/14 09:23:20;;;;;;;6.63;5.05;;;;;;;;;;6261490;28;20076;-76
2024/02/14 09:26:22;;;;;;;12.23;9.13;;;;;;;;;;6246801;28;20079;-77
2024/02/14 09:29:25;;;;;;;12.25;8.10;;;;;;;;;;6263423;28;20033;-76
2024/02/14 09:32:28;;;;;;;10.85;7.45;;;;;;;;;;6263189;28;20080;-76
2024/02/14 09:35:31;;;;;;;8.50;6.93;;;;;;;;;;6230941;28;20068;-76
2024/02/14 09:38:34;;;;;;;8.55;6.72;;;;;;;;;;6264567;28;20052;-75
2024/02/14 09:41:40;;;;;;;8.25;6.57;;;;;;;;;;6274300;28;20048;-78
2024/02/14 09:44:45;;;;;;;9.55;7.82;;;;;;;;;;6263905;28;20036;-76
2024/02/14 09:47:48;;;;;;;10.02;6.93;;;;;;;;;;6279263;28;20056;-76
2024/02/14 09:50:55;;;;;;;12.23;9.80;;;;;;;;;;6236610;28;20040;-75
2024/02/14 09:54:03;;;;;;;6.68;5.65;;;;;;;;;;6258797;28;20045;-75
2024/02/14 09:57:07;;;;;;;10.95;6.45;;;;;;;;;;6252707;28;20460;-74
2024/02/14 10:00:11;;;;;;;11.40;8.85;;;;;;;;;;6233983;28;20795;-74
2024/02/14 10:03:15;;;;;;;15.75;9.50;;;;;;;;;;6264459;28;20044;-75
2024/02/14 10:06:20;;;;;;;13.48;9.27;;;;;;;;;;6274478;28;20538;-75
2024/02/14 10:09:22;;;;;;;7.82;6.65;;;;;;;;;;6277506;28;20040;-76
2024/02/14 10:12:24;;;;;;;9.18;6.40;;;;;;;;;;6249468;28;20561;-76
2024/02/14 10:15:29;;;;;;;11.30;8.25;;;;;;;;;;6289875;28;20088;-75
2024/02/14 10:18:31;;;;;;;11.30;7.93;;;;;;;;;;6268288;28;20933;-76
2024/02/14 10:21:34;;;;;;;10.88;7.68;;;;;;;;;;6270717;28;20091;-76
2024/02/14 10:24:36;;;;;;;11.70;8.60;;;;;;;;;;6262534;28;20099;-75
2024/02/14 10:27:39;;;;;;;11.25;8.65;;;;;;;;;;6264677;28;20055;-75
2024/02/14 10:30:45;;;;;;;12.88;9.32;;;;;;;;;;6248906;28;20101;-76
2024/02/14 10:33:47;;;;;;;10.38;7.65;;;;;;;;;;6272176;28;20044;-76
2024/02/14 10:36:52;;;;;;;11.45;7.90;;;;;;;;;;6244484;28;20059;-77
2024/02/14 10:39:56;;;;;;;10.70;8.45;;;;;;;;;;6250034;28;20048;-76
2024/02/14 10:42:59;;;;;;;12.02;9.82;;;;;;;;;;6266205;28;20139;-77
2024/02/14 10:46:08;;;;;;;10.27;8.48;;;;;;;;;;6280596;28;20041;-77
2024/02/14 10:49:11;;;;;;;14.15;8.18;;;;;;;;;;6269481;28;20509;-76
2024/02/14 10:52:15;;;;;;;9.23;6.85;;;;;;;;;;6267690;28;20037;-76
2024/02/14 10:55:20;;;;;;;10.93;7.10;;;;;;;;;;6253958;28;20083;-76
2024/02/14 10:58:24;;;;;;;12.60;9.27;;;;;;;;;;6276253;28;20067;-76
2024/02/14 11:01:31;;;;;;;7.57;5.90;;;;;;;;;;6260722;28;20553;-76
2024/02/14 11:04:34;;;;;;;8.90;6.85;;;;;;;;;;6248567;28;20532;-76
2024/02/14 11:07:36;;;;;;;11.52;7.30;;;;;;;;;;6270529;28;20053;-75
2024/02/14 11:10:38;;;;;;;9.60;6.55;;;;;;;;;;6255667;28;20066;-76
2024/02/14 11:13:42;;;;;;;10.10;7.43;;;;;;;;;;6247557;28;20366;-77
2024/02/14 11:16:45;;;;;;;13.10;8.35;;;;;;;;;;6236568;28;20052;-76
2024/02/14 11:19:48;;;;;;;10.75;9.40;;;;;;;;;;6287992;28;20057;-76
2024/02/14 11:22:59;;;;;;;12.68;8.07;;;;;;;;;;6281296;28;20120;-76
2024/02/14 11:26:03;;;;;;;13.20;7.82;;;;;;;;;;6224618;28;20394;-77
2024/02/14 11:29:07;;;;;;;10.23;6.85;;;;;;;;;;6246504;28;20528;-76
2024/02/14 11:32:11;;;;;;;11.50;8.15;;;;;;;;;;6266377;28;20067;-76
2024/02/14 11:35:14;;;;;;;13.38;8.70;;;;;;;;;;6255702;28;20837;-75
2024/02/14 11:38:17;;;;;;;15.95;9.70;;;;;;;;;;6283385;28;20055;-76
2024/02/14 11:41:20;;;;;;;17.65;6.95;;;;;;;;;;6281975;28;20037;-77
2024/02/14 11:44:23;;;;;;;14.02;8.40;;;;;;;;;;6262257;28;20214;-77
2024/02/14 11:47:25;;;;;;;11.82;8.52;;;;;;;;;;6238126;28;20048;-77
2024/02/14 11:50:28;;;;;;;15.27;9.20;;;;;;;;;;6260154;28;20532;-77
2024/02/14 11:53:31;;;;;;;14.07;7.93;;;;;;;;;;6278267;28;20525;-77
2024/02/14 11:56:37;;;;;;;13.50;6.28;;;;;;;;;;6282491;28;20131;-76
2024/02/14 11:59:39;;;;;;;11.10;9.48;;;;;;;;;;6271530;28;20040;-77
2024/02/14 12:02:42;;;;;;;8.20;6.07;;;;;;;;;;6241262;28;20044;-76
2024/02/14 12:05:50;;;;;;;12.50;7.85;;;;;;;;;;6283610;28;20718;-76
2024/02/14 12:08:53;;;;;;;10.45;7.78;;;;;;;;;;6245142;28;20052;-76
2024/02/14 12:11:59;;;;;;;10.20;8.10;;;;;;;;;;6247913;28;20127;-76
2024/02/14 12:15:02;;;;;;;10.45;7.65;;;;;;;;;;6279017;28;20176;-76
2024/02/14 12:18:07;;;;;;;13.43;7.78;;;;;;;;;;6241712;28;20060;-76
2024/02/14 12:21:10;;;;;;;11.10;8.32;;;;;;;;;;6255819;28;20033;-76
2024/02/14 12:24:14;;;;;;;12.82;9.07;;;;;;;;;;6240634;28;20055;-76
2024/02/14 12:27:19;;;;;;;10.57;7.82;;;;;;;;;;6262278;28;20041;-76
2024/02/14 12:30:22;;;;;;;10.25;7.22;;;;;;;;;;6264275;28;20067;-75
2024/02/14 12:33:25;;;;;;;11.75;7.38;;;;;;;;;;6277068;28;20032;-75
2024/02/14 12:36:30;;;;;;;10.63;6.20;;;;;;;;;;6219455;28;20052;-75
2024/02/14 12:39:33;;;;;;;11.15;8.15;;;;;;;;;;6244359;28;20549;-76
2024/02/14 12:42:35;;;;;;;9.52;7.35;;;;;;;;;;6257643;28;20546;-76
2024/02/14 12:45:38;;;;;;;11.50;7.68;;;;;;;;;;6236331;28;20577;-76
2024/02/14 12:48:40;;;;;;;11.95;8.63;;;;;;;;;;6268048;28;20048;-75
2024/02/14 12:51:43;;;;;;;10.20;6.93;;;;;;;;;;6224793;28;20044;-76
2024/02/14 12:54:46;;;;;;;13.43;9.15;;;;;;;;;;6271695;28;20052;-77
2024/02/14 12:57:50;;;;;;;9.50;6.35;;;;;;;;;;6242041;28;20063;-76
2024/02/14 13:00:53;;;;;;;9.70;6.70;;;;;;;;;;6253907;28;20081;-76
2024/02/14 13:03:55;;;;;;;11.68;6.63;;;;;;;;;;6281361;28;20052;-77
2024/02/14 13:06:58;;;;;;;8.95;5.65;;;;;;;;;;6266977;28;20582;-76
2024/02/14 13:10:03;;;;;;;12.68;8.10;;;;;;;;;;6284739;28;20858;-76
2024/02/14 13:13:07;;;;;;;13.10;8.63;;;;;;;;;;6234046;28;20119;-76
2024/02/14 13:16:10;;;;;;;10.18;7.47;;;;;;;;;;6260944;28;20367;-76
2024/02/14 13:19:14;;;;;;;9.13;6.63;;;;;;;;;;6262213;28;20171;-76
2024/02/14 13:22:20;;;;;;;11.57;8.35;;;;;;;;;;6247595;28;20052;-77
2024/02/14 13:25:22;;;;;;;11.23;8.23;;;;;;;;;;6262319;28;20787;-76
2024/02/14 13:28:25;;;;;;;9.13;6.30;;;;;;;;;;6261126;28;20056;-77
2024/02/14 13:31:27;;;;;;;10.55;7.63;;;;;;;;;;6281120;28;20282;-76
2024/02/14 13:34:29;;;;;;;10.98;6.43;;;;;;;;;;6264184;28;20052;-76
2024/02/14 13:37:33;;;;;;;11.82;5.63;;;;;;;;;;6268438;28;20105;-77
2024/02/14 13:40:35;;;;;;;7.90;5.32;;;;;;;;;;6222361;28;20052;-76
2024/02/14 13:43:38;;;;;;;6.97;5.45;;;;;;;;;;6262098;28;20452;-76
2024/02/14 13:46:46;;;;;;;6.72;4.80;;;;;;;;;;6251349;28;20060;-77
2024/02/14 13:49:49;;;;;;;9.85;6.07;;;;;;;;;;6251444;28;20056;-77
2024/02/14 13:52:51;;;;;;;11.38;7.40;;;;;;;;;;6255893;28;20044;-76
2024/02/14 13:55:53;;;;;;;12.60;8.60;;;;;;;;;;6253840;28;20808;-76
2024/02/14 13:58:56;;;;;;;17.90;9.82;;;;;;;;;;6295613;28;20035;-76
2024/02/14 14:01:58;;;;;;;18.27;11.18;;;;;;;;;;6278922;28;20052;-76
2024/02/14 14:05:03;;;;;;;15.32;9.70;;;;;;;;;;6270178;28;20060;-76
2024/02/14 14:08:06;;;;;;;18.23;11.63;;;;;;;;;;6274883;28;20367;-76
2024/02/14 14:11:08;;;;;;;19.05;11.25;;;;;;;;;;6290396;28;20430;-76
2024/02/14 14:14:17;;;;;;;23.17;12.27;;;;;;;;;;6275845;28;20730;-76
2024/02/14 14:17:21;;;;;;;18.17;11.13;;;;;;;;;;6292010;28;20452;-76
2024/02/14 14:20:24;;;;;;;26.17;14.02;;;;;;;;;;6270123;28;20039;-76
2024/02/14 14:23:28;;;;;;;37.13;16.80;;;;;;;;;;6269069;28;20055;-76
2024/02/14 14:26:30;;;;;;;28.73;15.13;;;;;;;;;;6280762;28;20106;-76
2024/02/14 14:29:33;;;;;;;22.15;11.77;;;;;;;;;;6251609;28;20135;-77
2024/02/14 14:32:35;;;;;;;18.25;10.70;;;;;;;;;;6284298;28;20820;-77
2024/02/14 14:35:38;;;;;;;16.98;10.90;;;;;;;;;;6259411;28;20134;-77
2024/02/14 14:38:42;;;;;;;16.63;11.05;;;;;;;;;;6259665;28;20058;-77
2024/02/14 14:41:44;;;;;;;23.55;12.38;;;;;;;;;;6261887;28;20037;-77
2024/02/14 14:44:48;;;;;;;25.45;13.48;;;;;;;;;;6242325;28;20060;-77
2024/02/14 14:47:50;;;;;;;13.55;10.18;;;;;;;;;;6277515;28;20271;-77
2024/02/14 14:50:53;;;;;;;13.80;9.68;;;;;;;;;;6250045;28;20074;-77
2024/02/14 14:53:56;;;;;;;13.00;8.93;;;;;;;;;;6278584;28;20184;-78
2024/02/14 14:56:58;;;;;;;17.20;9.80;;;;;;;;;;6265077;28;20079;-78
2024/02/14 15:00:03;;;;;;;12.52;7.30;;;;;;;;;;6277003;28;20676;-77
2024/02/14 15:03:05;;;;;;;13.40;9.55;;;;;;;;;;6233947;28;20048;-77
2024/02/14 15:06:07;;;;;;;13.48;9.35;;;;;;;;;;6245581;28;20061;-77
2024/02/14 15:09:10;;;;;;;22.00;14.15;;;;;;;;;;6222074;28;20048;-77
2024/02/14 15:12:13;;;;;;;17.35;10.15;;;;;;;;;;6261801;28;20213;-78
2024/02/14 15:15:19;;;;;;;11.95;7.28;;;;;;;;;;6229943;28;20048;-78
2024/02/14 15:18:22;;;;;;;10.10;6.07;;;;;;;;;;6244915;28;20049;-78
2024/02/14 15:21:25;;;;;;;10.35;6.15;;;;;;;;;;6245349;28;20114;-78
2024/02/14 15:24:27;;;;;;;12.15;8.07;;;;;;;;;;6248286;28;20434;-78
2024/02/14 15:27:31;;;;;;;9.80;7.60;;;;;;;;;;6224753;28;20048;-78
2024/02/14 15:33:58;;;;;;;14.25;8.07;;;;;;;;;;6275397;28;20032;-78
2024/02/14 15:37:01;;;;;;;14.25;7.35;;;;;;;;;;6287139;28;20113;-78
2024/02/14 15:40:04;;;;;;;11.75;6.55;;;;;;;;;;6250313;28;20661;-78
2024/02/14 15:43:07;;;;;;;20.92;10.60;;;;;;;;;;6265856;28;20079;-77
2024/02/14 15:46:14;;;;;;;10.88;6.05;;;;;;;;;;6272388;28;20051;-76
2024/02/14 15:49:16;;;;;;;7.97;5.53;;;;;;;;;;6267656;28;20041;-77
2024/02/14 15:52:20;;;;;;;6.53;4.78;;;;;;;;;;6265671;28;20616;-76
2024/02/14 15:55:24;;;;;;;7.00;4.65;;;;;;;;;;6261539;28;20059;-76
2024/02/14 15:58:28;;;;;;;8.50;5.55;;;;;;;;;;6245557;28;20059;-76
2024/02/14 16:01:30;;;;;;;11.88;7.40;;;;;;;;;;6247468;28;20160;-77
2024/02/14 16:04:33;;;;;;;10.68;6.55;;;;;;;;;;6227712;28;20044;-77
2024/02/14 16:07:36;;;;;;;9.77;5.55;;;;;;;;;;6248336;28;20064;-79
2024/02/14 16:10:41;;;;;;;7.95;5.85;;;;;;;;;;6262659;28;20056;-77
2024/02/14 16:13:43;;;;;;;11.43;6.78;;;;;;;;;;6216174;28;20045;-76
2024/02/14 16:16:45;;;;;;;9.68;6.68;;;;;;;;;;6256354;28;20049;-77
2024/02/14 16:19:48;;;;;;;16.25;10.57;;;;;;;;;;6276582;28;20048;-77
2024/02/14 16:22:50;;;;;;;13.75;8.43;;;;;;;;;;6241026;28;20049;-79
2024/02/14 16:25:52;;;;;;;9.27;5.68;;;;;;;;;;6267716;28;20049;-77
2024/02/14 16:28:55;;;;;;;13.23;7.43;;;;;;;;;;6276016;28;20609;-77
2024/02/14 16:31:57;;;;;;;14.15;8.35;;;;;;;;;;6238213;28;20681;-78
2024/02/14 16:35:00;;;;;;;11.20;8.05;;;;;;;;;;6275627;28;20123;-79
2024/02/14 16:38:03;;;;;;;22.33;14.35;;;;;;;;;;6277013;28;20170;-78
2024/02/14 16:41:07;;;;;;;20.15;10.80;;;;;;;;;;6255153;28;20049;-78
2024/02/14 16:44:12;;;;;;;23.85;12.77;;;;;;;;;;6242514;28;20625;-80
2024/02/14 16:47:16;;;;;;;18.17;10.00;;;;;;;;;;6263029;28;20135;-79
2024/02/14 16:50:19;;;;;;;23.38;13.40;;;;;;;;;;6262871;28;20045;-80
2024/02/14 16:53:22;;;;;;;19.35;11.20;;;;;;;;;;6243200;28;20040;-80
2024/02/14 16:56:30;;;;;;;20.27;11.15;;;;;;;;;;6224076;28;20057;-79
2024/02/14 16:59:41;;;;;;;14.43;8.20;;;;;;;;;;6269497;28;20873;-80
2024/02/14 17:02:45;;;;;;;11.63;8.25;;;;;;;;;;6245046;28;20639;-79
2024/02/14 17:05:47;;;;;;;13.68;8.45;;;;;;;;;;6250896;28;20565;-78
2024/02/14 17:08:50;;;;;;;13.73;8.93;;;;;;;;;;6261651;28;20131;-79
2024/02/14 17:11:53;;;;;;;14.93;9.23;;;;;;;;;;6247421;28;20082;-80
2024/02/14 17:14:56;;;;;;;12.88;9.45;;;;;;;;;;6246355;28;20055;-81
2024/02/14 17:17:59;;;;;;;14.25;7.07;;;;;;;;;;6245645;28;20044;-79
2024/02/14 17:21:03;;;;;;;12.82;7.22;;;;;;;;;;6237722;28;20414;-79
2024/02/14 17:24:08;;;;;;;13.20;6.95;;;;;;;;;;6269432;28;20052;-80
2024/02/14 17:27:10;;;;;;;14.98;8.55;;;;;;;;;;6245438;28;20052;-80
2024/02/14 17:30:12;;;;;;;15.27;9.23;;;;;;;;;;6250778;28;20048;-80
2024/02/14 17:33:16;;;;;;;13.07;7.95;;;;;;;;;;6264933;28;20074;-81
2024/02/14 17:36:18;;;;;;;11.38;7.18;;;;;;;;;;6264004;28;20515;-79
2024/02/14 17:39:20;;;;;;;11.88;7.68;;;;;;;;;;6264779;28;20051;-79
2024/02/14 17:42:23;;;;;;;9.63;5.78;;;;;;;;;;6264751;28;20041;-79
2024/02/14 17:45:26;;;;;;;10.63;7.95;;;;;;;;;;6245540;28;20051;-79
2024/02/14 17:48:28;;;;;;;16.33;9.45;;;;;;;;;;6263535;28;20051;-79
2024/02/14 17:51:31;;;;;;;10.43;6.95;;;;;;;;;;6246802;28;20045;-78
2024/02/14 17:54:35;;;;;;;18.63;10.13;;;;;;;;;;6252015;28;20052;-81
2024/02/14 17:57:37;;;;;;;15.25;10.63;;;;;;;;;;6286874;28;20055;-78
2024/02/14 18:00:40;;;;;;;15.30;8.30;;;;;;;;;;6270480;28;20055;-79
2024/02/14 18:03:42;;;;;;;11.80;7.07;;;;;;;;;;6243630;28;20874;-80
2024/02/14 18:06:45;;;;;;;7.00;3.90;;;;;;;;;;6277160;28;20427;-81
2024/02/14 18:09:50;;;;;;;10.57;7.25;;;;;;;;;;6287424;28;20055;-82
2024/02/14 18:12:52;;;;;;;5.72;4.55;;;;;;;;;;6253934;28;20059;-81